sensor_id;sensor_type;location;lat;lon;timestamp;P1;durP1;ratioP1;P2;durP2;ratioP2
45114;SDS011;30877;43.706;10.780;2022-07-29T00:01:40;10.75;;;3.95;;
45114;SDS011;30877;43.706;10.780;2022-07-29T00:04:09;4.93;;;2.90;;
45114;SDS011;30877;43.706;10.780;2022-07-29T00:06:39;7.05;;;3.25;;
45114;SDS011;30877;43.706;10.780;2022-07-29T00:09:07;5.78;;;2.67;;
45114;SDS011;30877;43.706;10.780;2022-07-29T00:11:37;8.88;;;3.17;;
45114;SDS011;30877;43.706;10.780;2022-07-29T00:14:05;8.35;;;3.50;;
45114;SDS011;30877;43.706;10.780;2022-07-29T00:16:34;4.93;;;3.03;;
45114;SDS011;30877;43.706;10.780;2022-07-29T00:19:02;5.55;;;2.45;;
45114;SDS011;30877;43.706;10.780;2022-07-29T00:21:33;4.72;;;3.00;;
45114;SDS011;30877;43.706;10.780;2022-07-29T00:24:01;7.50;;;2.70;;
45114;SDS011;30877;43.706;10.780;2022-07-29T00:26:30;7.85;;;3.58;;
45114;SDS011;30877;43.706;10.780;2022-07-29T00:29:01;5.03;;;2.92;;
45114;SDS011;30877;43.706;10.780;2022-07-29T00:31:51;8.45;;;3.33;;
45114;SDS011;30877;43.706;10.780;2022-07-29T00:34:19;5.88;;;3.15;;
45114;SDS011;30877;43.706;10.780;2022-07-29T00:39:33;6.80;;;2.97;;
45114;SDS011;30877;43.706;10.780;2022-07-29T00:42:02;6.05;;;3.00;;
45114;SDS011;30877;43.706;10.780;2022-07-29T00:44:32;7.05;;;2.97;;
45114;SDS011;30877;43.706;10.780;2022-07-29T00:47:04;8.00;;;3.08;;
45114;SDS011;30877;43.706;10.780;2022-07-29T00:49:33;6.97;;;2.90;;
45114;SDS011;30877;43.706;10.780;2022-07-29T00:52:02;5.88;;;3.30;;
45114;SDS011;30877;43.706;10.780;2022-07-29T00:54:30;6.38;;;3.70;;
45114;SDS011;30877;43.706;10.780;2022-07-29T00:56:59;7.53;;;3.53;;
45114;SDS011;30877;43.706;10.780;2022-07-29T00:59:28;6.03;;;3.40;;
45114;SDS011;30877;43.706;10.780;2022-07-29T01:02:02;5.03;;;3.30;;
45114;SDS011;30877;43.706;10.780;2022-07-29T01:04:31;6.63;;;2.65;;
45114;SDS011;30877;43.706;10.780;2022-07-29T01:06:59;7.95;;;3.20;;
45114;SDS011;30877;43.706;10.780;2022-07-29T01:09:29;7.22;;;3.60;;
45114;SDS011;30877;43.706;10.780;2022-07-29T01:12:12;7.60;;;3.28;;
45114;SDS011;30877;43.706;10.780;2022-07-29T01:14:44;5.90;;;3.03;;
45114;SDS011;30877;43.706;10.780;2022-07-29T01:17:16;9.10;;;3.08;;
45114;SDS011;30877;43.706;10.780;2022-07-29T01:19:51;9.77;;;3.60;;
45114;SDS011;30877;43.706;10.780;2022-07-29T01:22:40;7.45;;;3.38;;
45114;SDS011;30877;43.706;10.780;2022-07-29T01:25:46;7.57;;;3.35;;
45114;SDS011;30877;43.706;10.780;2022-07-29T01:28:36;5.55;;;3.08;;
45114;SDS011;30877;43.706;10.780;2022-07-29T01:31:15;6.72;;;3.20;;
45114;SDS011;30877;43.706;10.780;2022-07-29T01:33:53;6.72;;;3.00;;
45114;SDS011;30877;43.706;10.780;2022-07-29T01:36:27;6.47;;;3.05;;
45114;SDS011;30877;43.706;10.780;2022-07-29T01:39:02;6.32;;;3.10;;
45114;SDS011;30877;43.706;10.780;2022-07-29T01:41:36;4.88;;;2.88;;
45114;SDS011;30877;43.706;10.780;2022-07-29T01:44:12;4.50;;;2.80;;
45114;SDS011;30877;43.706;10.780;2022-07-29T01:46:48;6.63;;;3.17;;
45114;SDS011;30877;43.706;10.780;2022-07-29T01:49:22;6.70;;;2.80;;
45114;SDS011;30877;43.706;10.780;2022-07-29T01:51:54;5.82;;;3.30;;
45114;SDS011;30877;43.706;10.780;2022-07-29T01:54:26;4.60;;;2.80;;
45114;SDS011;30877;43.706;10.780;2022-07-29T01:56:59;5.85;;;3.08;;
45114;SDS011;30877;43.706;10.780;2022-07-29T01:59:30;6.82;;;2.97;;
45114;SDS011;30877;43.706;10.780;2022-07-29T02:02:01;5.78;;;2.97;;
45114;SDS011;30877;43.706;10.780;2022-07-29T02:04:31;5.28;;;3.10;;
45114;SDS011;30877;43.706;10.780;2022-07-29T02:07:03;9.10;;;3.50;;
45114;SDS011;30877;43.706;10.780;2022-07-29T02:09:34;5.25;;;3.10;;
45114;SDS011;30877;43.706;10.780;2022-07-29T02:12:04;8.07;;;3.03;;
45114;SDS011;30877;43.706;10.780;2022-07-29T02:14:36;4.28;;;2.75;;
45114;SDS011;30877;43.706;10.780;2022-07-29T02:17:06;9.00;;;4.25;;
45114;SDS011;30877;43.706;10.780;2022-07-29T02:19:39;6.75;;;4.20;;
45114;SDS011;30877;43.706;10.780;2022-07-29T02:22:10;5.28;;;3.25;;
45114;SDS011;30877;43.706;10.780;2022-07-29T02:24:39;10.48;;;4.38;;
45114;SDS011;30877;43.706;10.780;2022-07-29T02:27:09;7.68;;;4.30;;
45114;SDS011;30877;43.706;10.780;2022-07-29T02:29:40;11.05;;;5.07;;
45114;SDS011;30877;43.706;10.780;2022-07-29T02:32:10;8.30;;;5.28;;
45114;SDS011;30877;43.706;10.780;2022-07-29T02:34:40;6.18;;;4.05;;
45114;SDS011;30877;43.706;10.780;2022-07-29T02:37:10;7.70;;;3.97;;
45114;SDS011;30877;43.706;10.780;2022-07-29T02:39:40;11.32;;;4.10;;
45114;SDS011;30877;43.706;10.780;2022-07-29T02:42:11;9.85;;;5.13;;
45114;SDS011;30877;43.706;10.780;2022-07-29T02:44:44;5.60;;;3.78;;
45114;SDS011;30877;43.706;10.780;2022-07-29T02:47:13;7.15;;;4.32;;
45114;SDS011;30877;43.706;10.780;2022-07-29T02:49:48;8.95;;;4.15;;
45114;SDS011;30877;43.706;10.780;2022-07-29T02:52:22;7.07;;;4.28;;
45114;SDS011;30877;43.706;10.780;2022-07-29T02:55:00;8.02;;;4.60;;
45114;SDS011;30877;43.706;10.780;2022-07-29T02:57:36;6.03;;;3.88;;
45114;SDS011;30877;43.706;10.780;2022-07-29T03:00:22;6.65;;;4.28;;
45114;SDS011;30877;43.706;10.780;2022-07-29T03:02:54;5.50;;;3.55;;
45114;SDS011;30877;43.706;10.780;2022-07-29T03:05:26;7.90;;;3.60;;
45114;SDS011;30877;43.706;10.780;2022-07-29T03:07:57;7.30;;;3.67;;
45114;SDS011;30877;43.706;10.780;2022-07-29T03:10:28;9.02;;;3.95;;
45114;SDS011;30877;43.706;10.780;2022-07-29T03:12:57;5.80;;;4.00;;
45114;SDS011;30877;43.706;10.780;2022-07-29T03:15:28;6.97;;;3.53;;
45114;SDS011;30877;43.706;10.780;2022-07-29T03:17:57;5.47;;;3.55;;
45114;SDS011;30877;43.706;10.780;2022-07-29T03:20:27;7.30;;;3.60;;
45114;SDS011;30877;43.706;10.780;2022-07-29T03:22:55;5.82;;;3.42;;
45114;SDS011;30877;43.706;10.780;2022-07-29T03:25:23;5.35;;;3.22;;
45114;SDS011;30877;43.706;10.780;2022-07-29T03:27:51;7.22;;;3.10;;
45114;SDS011;30877;43.706;10.780;2022-07-29T03:30:19;7.47;;;3.22;;
45114;SDS011;30877;43.706;10.780;2022-07-29T03:32:50;7.65;;;3.28;;
45114;SDS011;30877;43.706;10.780;2022-07-29T03:35:19;5.60;;;3.22;;
45114;SDS011;30877;43.706;10.780;2022-07-29T03:37:47;5.47;;;3.30;;
45114;SDS011;30877;43.706;10.780;2022-07-29T03:40:18;4.15;;;3.10;;
45114;SDS011;30877;43.706;10.780;2022-07-29T03:42:50;5.20;;;2.97;;
45114;SDS011;30877;43.706;10.780;2022-07-29T03:45:20;6.93;;;3.53;;
45114;SDS011;30877;43.706;10.780;2022-07-29T03:47:53;6.80;;;3.80;;
45114;SDS011;30877;43.706;10.780;2022-07-29T03:50:28;5.18;;;3.40;;
45114;SDS011;30877;43.706;10.780;2022-07-29T03:52:57;5.63;;;3.25;;
45114;SDS011;30877;43.706;10.780;2022-07-29T03:55:26;7.65;;;3.38;;
45114;SDS011;30877;43.706;10.780;2022-07-29T03:57:57;4.47;;;2.92;;
45114;SDS011;30877;43.706;10.780;2022-07-29T04:00:27;5.68;;;3.42;;
45114;SDS011;30877;43.706;10.780;2022-07-29T04:02:58;7.75;;;3.75;;
45114;SDS011;30877;43.706;10.780;2022-07-29T04:05:27;5.07;;;3.13;;
45114;SDS011;30877;43.706;10.780;2022-07-29T04:07:55;8.27;;;3.45;;
45114;SDS011;30877;43.706;10.780;2022-07-29T04:10:24;5.60;;;3.45;;
45114;SDS011;30877;43.706;10.780;2022-07-29T04:12:58;7.65;;;4.45;;
45114;SDS011;30877;43.706;10.780;2022-07-29T04:15:26;6.75;;;3.15;;
45114;SDS011;30877;43.706;10.780;2022-07-29T04:17:59;5.65;;;3.58;;
45114;SDS011;30877;43.706;10.780;2022-07-29T04:20:27;7.50;;;3.58;;
45114;SDS011;30877;43.706;10.780;2022-07-29T04:22:55;5.30;;;3.10;;
45114;SDS011;30877;43.706;10.780;2022-07-29T04:25:23;8.93;;;3.78;;
45114;SDS011;30877;43.706;10.780;2022-07-29T04:27:51;6.13;;;3.65;;
45114;SDS011;30877;43.706;10.780;2022-07-29T04:30:29;7.15;;;3.42;;
45114;SDS011;30877;43.706;10.780;2022-07-29T04:32:59;5.95;;;3.58;;
45114;SDS011;30877;43.706;10.780;2022-07-29T04:35:28;7.28;;;3.65;;
45114;SDS011;30877;43.706;10.780;2022-07-29T04:38:04;9.05;;;3.05;;
45114;SDS011;30877;43.706;10.780;2022-07-29T04:40:41;6.68;;;3.55;;
45114;SDS011;30877;43.706;10.780;2022-07-29T04:43:09;8.07;;;3.60;;
45114;SDS011;30877;43.706;10.780;2022-07-29T04:45:41;7.93;;;3.53;;
45114;SDS011;30877;43.706;10.780;2022-07-29T04:48:10;5.13;;;3.55;;
45114;SDS011;30877;43.706;10.780;2022-07-29T04:50:38;5.68;;;2.90;;
45114;SDS011;30877;43.706;10.780;2022-07-29T04:53:07;5.10;;;3.00;;
45114;SDS011;30877;43.706;10.780;2022-07-29T04:55:35;7.97;;;3.25;;
45114;SDS011;30877;43.706;10.780;2022-07-29T04:58:04;5.22;;;3.30;;
45114;SDS011;30877;43.706;10.780;2022-07-29T05:00:33;6.18;;;3.67;;
45114;SDS011;30877;43.706;10.780;2022-07-29T05:03:01;4.63;;;3.05;;
45114;SDS011;30877;43.706;10.780;2022-07-29T05:05:31;5.40;;;3.42;;
45114;SDS011;30877;43.706;10.780;2022-07-29T05:07:59;6.82;;;3.47;;
45114;SDS011;30877;43.706;10.780;2022-07-29T05:10:27;10.10;;;3.67;;
45114;SDS011;30877;43.706;10.780;2022-07-29T05:12:56;6.40;;;3.55;;
45114;SDS011;30877;43.706;10.780;2022-07-29T05:15:24;8.00;;;3.95;;
45114;SDS011;30877;43.706;10.780;2022-07-29T05:17:52;6.70;;;3.55;;
45114;SDS011;30877;43.706;10.780;2022-07-29T05:20:20;7.15;;;3.65;;
45114;SDS011;30877;43.706;10.780;2022-07-29T05:22:54;6.72;;;3.90;;
45114;SDS011;30877;43.706;10.780;2022-07-29T05:25:22;5.55;;;3.25;;
45114;SDS011;30877;43.706;10.780;2022-07-29T05:30:37;8.57;;;3.50;;
45114;SDS011;30877;43.706;10.780;2022-07-29T05:33:06;4.28;;;3.70;;
45114;SDS011;30877;43.706;10.780;2022-07-29T05:35:54;9.75;;;4.90;;
45114;SDS011;30877;43.706;10.780;2022-07-29T05:38:30;7.60;;;5.63;;
45114;SDS011;30877;43.706;10.780;2022-07-29T05:40:58;9.73;;;5.85;;
45114;SDS011;30877;43.706;10.780;2022-07-29T05:43:27;7.97;;;5.20;;
45114;SDS011;30877;43.706;10.780;2022-07-29T05:45:56;10.18;;;6.32;;
45114;SDS011;30877;43.706;10.780;2022-07-29T05:48:25;10.93;;;7.25;;
45114;SDS011;30877;43.706;10.780;2022-07-29T05:50:53;13.10;;;5.93;;
45114;SDS011;30877;43.706;10.780;2022-07-29T05:53:21;10.75;;;6.00;;
45114;SDS011;30877;43.706;10.780;2022-07-29T05:55:51;11.10;;;5.72;;
45114;SDS011;30877;43.706;10.780;2022-07-29T05:58:19;8.77;;;5.47;;
45114;SDS011;30877;43.706;10.780;2022-07-29T06:00:50;9.43;;;5.80;;
45114;SDS011;30877;43.706;10.780;2022-07-29T06:03:20;11.35;;;6.00;;
45114;SDS011;30877;43.706;10.780;2022-07-29T06:05:48;14.18;;;5.63;;
45114;SDS011;30877;43.706;10.780;2022-07-29T06:08:17;7.50;;;5.68;;
45114;SDS011;30877;43.706;10.780;2022-07-29T06:10:45;13.32;;;5.57;;
45114;SDS011;30877;43.706;10.780;2022-07-29T06:13:15;10.43;;;4.88;;
45114;SDS011;30877;43.706;10.780;2022-07-29T06:15:44;8.27;;;5.38;;
45114;SDS011;30877;43.706;10.780;2022-07-29T06:18:12;10.32;;;5.03;;
45114;SDS011;30877;43.706;10.780;2022-07-29T06:20:41;9.75;;;4.45;;
45114;SDS011;30877;43.706;10.780;2022-07-29T06:23:09;9.02;;;4.05;;
45114;SDS011;30877;43.706;10.780;2022-07-29T06:25:39;13.52;;;4.32;;
45114;SDS011;30877;43.706;10.780;2022-07-29T06:28:07;11.80;;;5.80;;
45114;SDS011;30877;43.706;10.780;2022-07-29T06:30:37;10.48;;;5.57;;
45114;SDS011;30877;43.706;10.780;2022-07-29T06:33:05;10.55;;;4.97;;
45114;SDS011;30877;43.706;10.780;2022-07-29T06:35:33;8.40;;;4.20;;
45114;SDS011;30877;43.706;10.780;2022-07-29T06:38:08;11.02;;;4.65;;
45114;SDS011;30877;43.706;10.780;2022-07-29T06:40:57;9.00;;;4.90;;
45114;SDS011;30877;43.706;10.780;2022-07-29T06:43:33;9.07;;;4.90;;
45114;SDS011;30877;43.706;10.780;2022-07-29T06:46:19;12.25;;;5.03;;
45114;SDS011;30877;43.706;10.780;2022-07-29T06:48:49;11.55;;;4.85;;
45114;SDS011;30877;43.706;10.780;2022-07-29T06:51:19;7.50;;;4.45;;
45114;SDS011;30877;43.706;10.780;2022-07-29T06:53:50;9.63;;;4.22;;
45114;SDS011;30877;43.706;10.780;2022-07-29T06:56:29;12.40;;;5.68;;
45114;SDS011;30877;43.706;10.780;2022-07-29T06:59:04;9.95;;;4.90;;
45114;SDS011;30877;43.706;10.780;2022-07-29T07:01:33;9.13;;;4.80;;
45114;SDS011;30877;43.706;10.780;2022-07-29T07:04:02;11.40;;;4.78;;
45114;SDS011;30877;43.706;10.780;2022-07-29T07:06:30;10.13;;;4.40;;
45114;SDS011;30877;43.706;10.780;2022-07-29T07:08:58;13.25;;;5.40;;
45114;SDS011;30877;43.706;10.780;2022-07-29T07:11:26;8.60;;;4.78;;
45114;SDS011;30877;43.706;10.780;2022-07-29T07:13:55;8.98;;;4.07;;
45114;SDS011;30877;43.706;10.780;2022-07-29T07:16:29;11.68;;;5.10;;
45114;SDS011;30877;43.706;10.780;2022-07-29T07:19:00;12.98;;;5.03;;
45114;SDS011;30877;43.706;10.780;2022-07-29T07:21:28;10.40;;;4.50;;
45114;SDS011;30877;43.706;10.780;2022-07-29T07:23:57;10.02;;;5.03;;
45114;SDS011;30877;43.706;10.780;2022-07-29T07:26:25;13.40;;;4.63;;
45114;SDS011;30877;43.706;10.780;2022-07-29T07:28:54;11.30;;;4.88;;
45114;SDS011;30877;43.706;10.780;2022-07-29T07:31:22;8.38;;;4.15;;
45114;SDS011;30877;43.706;10.780;2022-07-29T07:33:50;10.13;;;4.50;;
45114;SDS011;30877;43.706;10.780;2022-07-29T07:36:22;10.98;;;4.40;;
45114;SDS011;30877;43.706;10.780;2022-07-29T07:38:51;9.38;;;4.30;;
45114;SDS011;30877;43.706;10.780;2022-07-29T07:41:20;9.10;;;4.90;;
45114;SDS011;30877;43.706;10.780;2022-07-29T07:43:49;10.57;;;4.40;;
45114;SDS011;30877;43.706;10.780;2022-07-29T07:46:18;9.35;;;4.45;;
45114;SDS011;30877;43.706;10.780;2022-07-29T07:48:46;9.77;;;4.93;;
45114;SDS011;30877;43.706;10.780;2022-07-29T07:51:15;7.53;;;4.40;;
45114;SDS011;30877;43.706;10.780;2022-07-29T07:53:44;13.48;;;5.18;;
45114;SDS011;30877;43.706;10.780;2022-07-29T07:56:16;13.05;;;4.57;;
45114;SDS011;30877;43.706;10.780;2022-07-29T07:58:44;10.57;;;5.20;;
45114;SDS011;30877;43.706;10.780;2022-07-29T08:01:13;13.23;;;5.85;;
45114;SDS011;30877;43.706;10.780;2022-07-29T08:03:41;13.27;;;5.72;;
45114;SDS011;30877;43.706;10.780;2022-07-29T08:06:09;12.82;;;5.78;;
45114;SDS011;30877;43.706;10.780;2022-07-29T08:08:37;13.07;;;5.85;;
45114;SDS011;30877;43.706;10.780;2022-07-29T08:11:07;15.38;;;5.55;;
45114;SDS011;30877;43.706;10.780;2022-07-29T08:13:36;11.85;;;5.05;;
45114;SDS011;30877;43.706;10.780;2022-07-29T08:16:05;11.18;;;5.35;;
45114;SDS011;30877;43.706;10.780;2022-07-29T08:18:40;11.60;;;5.03;;
45114;SDS011;30877;43.706;10.780;2022-07-29T08:21:09;12.40;;;5.20;;
45114;SDS011;30877;43.706;10.780;2022-07-29T08:23:41;11.95;;;5.03;;
45114;SDS011;30877;43.706;10.780;2022-07-29T08:26:25;9.07;;;5.03;;
45114;SDS011;30877;43.706;10.780;2022-07-29T08:28:53;9.82;;;5.40;;
45114;SDS011;30877;43.706;10.780;2022-07-29T08:31:21;10.77;;;5.25;;
45114;SDS011;30877;43.706;10.780;2022-07-29T08:33:49;11.38;;;5.72;;
45114;SDS011;30877;43.706;10.780;2022-07-29T08:36:18;10.80;;;5.38;;
45114;SDS011;30877;43.706;10.780;2022-07-29T08:38:48;11.18;;;4.95;;
45114;SDS011;30877;43.706;10.780;2022-07-29T08:41:16;10.10;;;5.25;;
45114;SDS011;30877;43.706;10.780;2022-07-29T08:43:47;6.88;;;3.53;;
45114;SDS011;30877;43.706;10.780;2022-07-29T08:46:16;4.50;;;2.90;;
45114;SDS011;30877;43.706;10.780;2022-07-29T08:48:44;7.22;;;3.58;;
45114;SDS011;30877;43.706;10.780;2022-07-29T08:51:13;9.75;;;3.90;;
45114;SDS011;30877;43.706;10.780;2022-07-29T08:53:43;7.45;;;3.72;;
45114;SDS011;30877;43.706;10.780;2022-07-29T08:56:12;11.60;;;3.97;;
45114;SDS011;30877;43.706;10.780;2022-07-29T08:58:41;11.52;;;4.25;;
45114;SDS011;30877;43.706;10.780;2022-07-29T09:01:20;11.23;;;4.47;;
45114;SDS011;30877;43.706;10.780;2022-07-29T09:04:10;7.00;;;3.38;;
45114;SDS011;30877;43.706;10.780;2022-07-29T09:06:43;7.32;;;3.50;;
45114;SDS011;30877;43.706;10.780;2022-07-29T09:09:13;7.93;;;3.42;;
45114;SDS011;30877;43.706;10.780;2022-07-29T09:11:41;7.53;;;2.65;;
45114;SDS011;30877;43.706;10.780;2022-07-29T09:14:11;7.60;;;3.17;;
45114;SDS011;30877;43.706;10.780;2022-07-29T09:19:28;5.50;;;2.78;;
45114;SDS011;30877;43.706;10.780;2022-07-29T09:21:58;5.93;;;2.55;;
45114;SDS011;30877;43.706;10.780;2022-07-29T09:24:42;6.03;;;2.80;;
45114;SDS011;30877;43.706;10.780;2022-07-29T09:27:18;3.67;;;2.00;;
45114;SDS011;30877;43.706;10.780;2022-07-29T09:29:58;3.17;;;2.25;;
45114;SDS011;30877;43.706;10.780;2022-07-29T09:32:29;4.53;;;2.10;;
45114;SDS011;30877;43.706;10.780;2022-07-29T09:37:44;5.15;;;2.30;;
45114;SDS011;30877;43.706;10.780;2022-07-29T09:40:14;5.38;;;2.40;;
45114;SDS011;30877;43.706;10.780;2022-07-29T09:42:44;4.47;;;2.45;;
45114;SDS011;30877;43.706;10.780;2022-07-29T09:45:12;5.00;;;2.72;;
45114;SDS011;30877;43.706;10.780;2022-07-29T09:47:59;4.03;;;2.30;;
45114;SDS011;30877;43.706;10.780;2022-07-29T09:50:40;3.00;;;2.20;;
45114;SDS011;30877;43.706;10.780;2022-07-29T09:53:10;4.90;;;2.17;;
45114;SDS011;30877;43.706;10.780;2022-07-29T09:55:46;2.55;;;2.10;;
45114;SDS011;30877;43.706;10.780;2022-07-29T09:58:15;4.45;;;2.13;;
45114;SDS011;30877;43.706;10.780;2022-07-29T10:00:45;3.58;;;2.33;;
45114;SDS011;30877;43.706;10.780;2022-07-29T10:03:15;5.13;;;2.47;;
45114;SDS011;30877;43.706;10.780;2022-07-29T10:05:44;4.82;;;2.80;;
45114;SDS011;30877;43.706;10.780;2022-07-29T10:08:13;3.55;;;2.33;;
45114;SDS011;30877;43.706;10.780;2022-07-29T10:10:51;6.90;;;3.00;;
45114;SDS011;30877;43.706;10.780;2022-07-29T10:13:36;6.60;;;2.25;;
45114;SDS011;30877;43.706;10.780;2022-07-29T10:16:05;4.90;;;2.20;;
45114;SDS011;30877;43.706;10.780;2022-07-29T10:18:35;4.10;;;2.10;;
45114;SDS011;30877;43.706;10.780;2022-07-29T10:21:07;5.05;;;2.83;;
45114;SDS011;30877;43.706;10.780;2022-07-29T10:23:48;5.22;;;2.65;;
45114;SDS011;30877;43.706;10.780;2022-07-29T10:26:17;3.53;;;2.33;;
45114;SDS011;30877;43.706;10.780;2022-07-29T10:28:46;6.15;;;2.40;;
45114;SDS011;30877;43.706;10.780;2022-07-29T10:31:18;4.88;;;2.33;;
45114;SDS011;30877;43.706;10.780;2022-07-29T10:34:11;5.43;;;2.38;;
45114;SDS011;30877;43.706;10.780;2022-07-29T10:36:50;4.72;;;2.00;;
45114;SDS011;30877;43.706;10.780;2022-07-29T10:39:32;4.90;;;2.22;;
45114;SDS011;30877;43.706;10.780;2022-07-29T10:42:17;4.20;;;2.00;;
45114;SDS011;30877;43.706;10.780;2022-07-29T10:45:00;5.05;;;2.05;;
45114;SDS011;30877;43.706;10.780;2022-07-29T10:47:31;5.82;;;2.15;;
45114;SDS011;30877;43.706;10.780;2022-07-29T10:50:03;5.03;;;2.50;;
45114;SDS011;30877;43.706;10.780;2022-07-29T10:55:30;4.43;;;2.35;;
45114;SDS011;30877;43.706;10.780;2022-07-29T10:58:12;5.40;;;2.20;;
45114;SDS011;30877;43.706;10.780;2022-07-29T11:00:44;5.10;;;1.80;;
45114;SDS011;30877;43.706;10.780;2022-07-29T11:06:17;5.15;;;2.10;;
45114;SDS011;30877;43.706;10.780;2022-07-29T11:12:01;5.80;;;2.10;;
45114;SDS011;30877;43.706;10.780;2022-07-29T11:17:26;5.90;;;2.10;;
45114;SDS011;30877;43.706;10.780;2022-07-29T11:20:30;3.83;;;1.95;;
45114;SDS011;30877;43.706;10.780;2022-07-29T11:23:21;4.20;;;2.00;;
45114;SDS011;30877;43.706;10.780;2022-07-29T11:26:13;4.13;;;1.83;;
45114;SDS011;30877;43.706;10.780;2022-07-29T11:28:52;3.95;;;2.30;;
45114;SDS011;30877;43.706;10.780;2022-07-29T11:31:34;5.00;;;1.95;;
45114;SDS011;30877;43.706;10.780;2022-07-29T11:34:19;5.13;;;2.22;;
45114;SDS011;30877;43.706;10.780;2022-07-29T11:37:19;6.30;;;2.05;;
45114;SDS011;30877;43.706;10.780;2022-07-29T11:40:13;6.18;;;2.40;;
45114;SDS011;30877;43.706;10.780;2022-07-29T11:42:45;4.07;;;1.85;;
45114;SDS011;30877;43.706;10.780;2022-07-29T11:45:19;5.28;;;1.58;;
45114;SDS011;30877;43.706;10.780;2022-07-29T11:48:14;4.90;;;1.88;;
45114;SDS011;30877;43.706;10.780;2022-07-29T11:50:58;4.68;;;1.73;;
45114;SDS011;30877;43.706;10.780;2022-07-29T11:53:29;3.60;;;1.80;;
45114;SDS011;30877;43.706;10.780;2022-07-29T11:56:05;7.60;;;2.13;;
45114;SDS011;30877;43.706;10.780;2022-07-29T11:58:42;6.72;;;2.10;;
45114;SDS011;30877;43.706;10.780;2022-07-29T12:01:12;5.35;;;2.00;;
45114;SDS011;30877;43.706;10.780;2022-07-29T12:03:44;6.43;;;1.77;;
45114;SDS011;30877;43.706;10.780;2022-07-29T12:06:13;5.25;;;1.80;;
45114;SDS011;30877;43.706;10.780;2022-07-29T12:08:46;4.95;;;1.88;;
45114;SDS011;30877;43.706;10.780;2022-07-29T12:11:17;7.82;;;2.33;;
45114;SDS011;30877;43.706;10.780;2022-07-29T12:13:49;6.97;;;2.22;;
45114;SDS011;30877;43.706;10.780;2022-07-29T12:16:18;4.38;;;1.85;;
45114;SDS011;30877;43.706;10.780;2022-07-29T12:18:56;4.00;;;1.73;;
45114;SDS011;30877;43.706;10.780;2022-07-29T12:21:26;3.78;;;1.90;;
45114;SDS011;30877;43.706;10.780;2022-07-29T12:23:55;4.70;;;2.10;;
45114;SDS011;30877;43.706;10.780;2022-07-29T12:26:36;4.45;;;2.25;;
45114;SDS011;30877;43.706;10.780;2022-07-29T12:29:16;5.55;;;1.75;;
45114;SDS011;30877;43.706;10.780;2022-07-29T12:31:59;5.15;;;2.10;;
45114;SDS011;30877;43.706;10.780;2022-07-29T12:34:28;4.95;;;1.80;;
45114;SDS011;30877;43.706;10.780;2022-07-29T12:36:58;4.57;;;1.92;;
45114;SDS011;30877;43.706;10.780;2022-07-29T12:39:27;5.45;;;1.73;;
45114;SDS011;30877;43.706;10.780;2022-07-29T12:41:57;4.97;;;2.05;;
45114;SDS011;30877;43.706;10.780;2022-07-29T12:44:44;4.60;;;2.20;;
45114;SDS011;30877;43.706;10.780;2022-07-29T12:47:14;5.03;;;2.00;;
45114;SDS011;30877;43.706;10.780;2022-07-29T12:49:42;4.75;;;1.95;;
45114;SDS011;30877;43.706;10.780;2022-07-29T12:52:24;6.93;;;2.38;;
45114;SDS011;30877;43.706;10.780;2022-07-29T12:54:54;4.22;;;1.58;;
45114;SDS011;30877;43.706;10.780;2022-07-29T12:57:24;8.45;;;2.20;;
45114;SDS011;30877;43.706;10.780;2022-07-29T13:00:07;3.60;;;1.85;;
45114;SDS011;30877;43.706;10.780;2022-07-29T13:02:42;5.28;;;1.67;;
45114;SDS011;30877;43.706;10.780;2022-07-29T13:05:11;10.05;;;2.13;;
45114;SDS011;30877;43.706;10.780;2022-07-29T13:07:45;3.83;;;1.65;;
45114;SDS011;30877;43.706;10.780;2022-07-29T13:10:23;3.88;;;1.90;;
45114;SDS011;30877;43.706;10.780;2022-07-29T13:13:03;3.17;;;1.90;;
45114;SDS011;30877;43.706;10.780;2022-07-29T13:15:33;4.32;;;2.08;;
45114;SDS011;30877;43.706;10.780;2022-07-29T13:18:03;2.58;;;1.50;;
45114;SDS011;30877;43.706;10.780;2022-07-29T13:20:32;5.45;;;1.73;;
45114;SDS011;30877;43.706;10.780;2022-07-29T13:23:01;4.03;;;2.20;;
45114;SDS011;30877;43.706;10.780;2022-07-29T13:25:31;3.50;;;1.55;;
45114;SDS011;30877;43.706;10.780;2022-07-29T13:28:00;4.57;;;1.65;;
45114;SDS011;30877;43.706;10.780;2022-07-29T13:30:32;4.65;;;1.90;;
45114;SDS011;30877;43.706;10.780;2022-07-29T13:33:10;4.88;;;1.90;;
45114;SDS011;30877;43.706;10.780;2022-07-29T13:35:39;6.55;;;2.00;;
45114;SDS011;30877;43.706;10.780;2022-07-29T13:38:07;3.55;;;1.55;;
45114;SDS011;30877;43.706;10.780;2022-07-29T13:40:36;2.88;;;1.65;;
45114;SDS011;30877;43.706;10.780;2022-07-29T13:43:06;4.68;;;2.08;;
45114;SDS011;30877;43.706;10.780;2022-07-29T13:45:36;8.95;;;2.20;;
45114;SDS011;30877;43.706;10.780;2022-07-29T13:48:06;5.72;;;1.80;;
45114;SDS011;30877;43.706;10.780;2022-07-29T13:50:35;5.60;;;1.73;;
45114;SDS011;30877;43.706;10.780;2022-07-29T13:53:04;5.22;;;1.90;;
45114;SDS011;30877;43.706;10.780;2022-07-29T13:55:33;3.88;;;1.58;;
45114;SDS011;30877;43.706;10.780;2022-07-29T13:58:01;5.50;;;1.75;;
45114;SDS011;30877;43.706;10.780;2022-07-29T14:00:32;2.67;;;1.70;;
45114;SDS011;30877;43.706;10.780;2022-07-29T14:03:01;4.53;;;1.70;;
45114;SDS011;30877;43.706;10.780;2022-07-29T14:05:29;4.22;;;2.25;;
45114;SDS011;30877;43.706;10.780;2022-07-29T14:08:00;1.85;;;1.23;;
45114;SDS011;30877;43.706;10.780;2022-07-29T14:10:28;6.28;;;1.73;;
45114;SDS011;30877;43.706;10.780;2022-07-29T14:12:56;4.85;;;1.83;;
45114;SDS011;30877;43.706;10.780;2022-07-29T14:15:25;3.58;;;1.55;;
45114;SDS011;30877;43.706;10.780;2022-07-29T14:17:55;4.82;;;1.88;;
45114;SDS011;30877;43.706;10.780;2022-07-29T14:23:19;5.15;;;1.83;;
45114;SDS011;30877;43.706;10.780;2022-07-29T14:25:52;4.75;;;1.80;;
45114;SDS011;30877;43.706;10.780;2022-07-29T14:28:20;3.63;;;1.77;;
45114;SDS011;30877;43.706;10.780;2022-07-29T14:30:48;4.75;;;1.60;;
45114;SDS011;30877;43.706;10.780;2022-07-29T14:33:18;4.68;;;1.77;;
45114;SDS011;30877;43.706;10.780;2022-07-29T14:35:46;5.90;;;2.08;;
45114;SDS011;30877;43.706;10.780;2022-07-29T14:38:15;4.28;;;1.67;;
45114;SDS011;30877;43.706;10.780;2022-07-29T14:40:43;6.72;;;2.10;;
45114;SDS011;30877;43.706;10.780;2022-07-29T14:43:16;2.15;;;1.65;;
45114;SDS011;30877;43.706;10.780;2022-07-29T14:45:47;3.78;;;1.70;;
45114;SDS011;30877;43.706;10.780;2022-07-29T14:48:15;3.40;;;1.63;;
45114;SDS011;30877;43.706;10.780;2022-07-29T14:50:44;4.25;;;1.50;;
45114;SDS011;30877;43.706;10.780;2022-07-29T14:53:12;3.05;;;1.90;;
45114;SDS011;30877;43.706;10.780;2022-07-29T14:55:40;3.58;;;1.55;;
45114;SDS011;30877;43.706;10.780;2022-07-29T14:58:08;5.65;;;1.65;;
45114;SDS011;30877;43.706;10.780;2022-07-29T15:00:42;4.90;;;1.83;;
45114;SDS011;30877;43.706;10.780;2022-07-29T15:03:10;13.85;;;2.45;;
45114;SDS011;30877;43.706;10.780;2022-07-29T15:05:51;3.25;;;1.60;;
45114;SDS011;30877;43.706;10.780;2022-07-29T15:08:19;3.15;;;1.58;;
45114;SDS011;30877;43.706;10.780;2022-07-29T15:10:47;6.43;;;1.63;;
45114;SDS011;30877;43.706;10.780;2022-07-29T15:13:15;4.10;;;1.48;;
45114;SDS011;30877;43.706;10.780;2022-07-29T15:15:43;4.68;;;1.65;;
45114;SDS011;30877;43.706;10.780;2022-07-29T15:18:12;3.63;;;1.63;;
45114;SDS011;30877;43.706;10.780;2022-07-29T15:20:52;3.35;;;1.73;;
45114;SDS011;30877;43.706;10.780;2022-07-29T15:23:20;5.03;;;1.65;;
45114;SDS011;30877;43.706;10.780;2022-07-29T15:25:48;4.60;;;2.40;;
45114;SDS011;30877;43.706;10.780;2022-07-29T15:28:16;7.13;;;1.90;;